sensor_id;sensor_type;location;lat;lon;timestamp;pressure;altitude;pressure_sealevel;temperature;humidity
70982;BME280;58640;51.320;9.456;2022-10-26T00:00:42;99531.66;;;8.73;97.68
70982;BME280;58640;51.320;9.456;2022-10-26T00:03:08;99531.00;;;8.71;98.20
70982;BME280;58640;51.320;9.456;2022-10-26T00:05:33;99531.78;;;8.63;98.66
70982;BME280;58640;51.320;9.456;2022-10-26T00:08:00;99537.66;;;8.67;98.40
70982;BME280;58640;51.320;9.456;2022-10-26T00:10:25;99533.97;;;8.68;98.27
70982;BME280;58640;51.320;9.456;2022-10-26T00:12:51;99533.00;;;8.69;98.14
70982;BME280;58640;51.320;9.456;2022-10-26T00:15:17;99535.50;;;8.70;98.34
70982;BME280;58640;51.320;9.456;2022-10-26T00:17:44;99540.22;;;8.76;97.87
70982;BME280;58640;51.320;9.456;2022-10-26T00:20:10;99536.56;;;8.77;98.19
70982;BME280;58640;51.320;9.456;2022-10-26T00:22:35;99533.38;;;8.82;98.55
70982;BME280;58640;51.320;9.456;2022-10-26T00:25:00;99533.88;;;8.85;98.21
70982;BME280;58640;51.320;9.456;2022-10-26T00:27:26;99538.09;;;8.88;98.41
70982;BME280;58640;51.320;9.456;2022-10-26T00:29:51;99537.06;;;8.89;98.45
70982;BME280;58640;51.320;9.456;2022-10-26T00:32:16;99538.94;;;8.88;98.89
70982;BME280;58640;51.320;9.456;2022-10-26T00:34:42;99538.94;;;8.88;98.82
70982;BME280;58640;51.320;9.456;2022-10-26T00:37:07;99533.06;;;8.85;98.82
70982;BME280;58640;51.320;9.456;2022-10-26T00:39:33;99532.38;;;8.83;98.92
70982;BME280;58640;51.320;9.456;2022-10-26T00:41:59;99530.72;;;8.82;98.84
70982;BME280;58640;51.320;9.456;2022-10-26T00:47:18;99525.19;;;8.83;99.02
70982;BME280;58640;51.320;9.456;2022-10-26T00:49:48;99520.97;;;8.81;99.15
70982;BME280;58640;51.320;9.456;2022-10-26T00:52:17;99526.31;;;8.81;98.84
70982;BME280;58640;51.320;9.456;2022-10-26T00:54:43;99530.19;;;8.78;99.00
70982;BME280;58640;51.320;9.456;2022-10-26T00:57:10;99521.78;;;8.73;99.20
70982;BME280;58640;51.320;9.456;2022-10-26T00:59:36;99521.81;;;8.81;98.81
70982;BME280;58640;51.320;9.456;2022-10-26T01:02:02;99522.34;;;8.93;97.25
70982;BME280;58640;51.320;9.456;2022-10-26T01:04:27;99515.16;;;9.02;96.90
70982;BME280;58640;51.320;9.456;2022-10-26T01:06:53;99514.47;;;8.92;97.32
70982;BME280;58640;51.320;9.456;2022-10-26T01:09:19;99510.06;;;8.82;97.84
70982;BME280;58640;51.320;9.456;2022-10-26T01:11:45;99512.72;;;8.74;98.12
70982;BME280;58640;51.320;9.456;2022-10-26T01:14:11;99511.22;;;8.72;98.81
70982;BME280;58640;51.320;9.456;2022-10-26T01:20:20;99503.13;;;8.64;99.69
70982;BME280;58640;51.320;9.456;2022-10-26T01:23:08;99500.28;;;8.65;99.41
70982;BME280;58640;51.320;9.456;2022-10-26T01:25:58;99500.66;;;8.70;98.65
70982;BME280;58640;51.320;9.456;2022-10-26T01:29:02;99496.78;;;8.73;98.45
70982;BME280;58640;51.320;9.456;2022-10-26T01:31:52;99498.81;;;8.71;98.75
70982;BME280;58640;51.320;9.456;2022-10-26T01:36:57;99495.13;;;8.72;98.69
70982;BME280;58640;51.320;9.456;2022-10-26T01:39:34;99489.94;;;8.70;98.40
70982;BME280;58640;51.320;9.456;2022-10-26T01:42:04;99488.13;;;8.79;97.94
70982;BME280;58640;51.320;9.456;2022-10-26T01:44:35;99481.91;;;8.78;97.71
70982;BME280;58640;51.320;9.456;2022-10-26T01:47:06;99474.19;;;8.75;97.68
70982;BME280;58640;51.320;9.456;2022-10-26T01:49:37;99475.34;;;8.73;97.97
70982;BME280;58640;51.320;9.456;2022-10-26T01:52:03;99467.63;;;8.70;98.04
70982;BME280;58640;51.320;9.456;2022-10-26T01:54:28;99476.50;;;8.62;98.96
70982;BME280;58640;51.320;9.456;2022-10-26T01:56:56;99473.28;;;8.59;99.20
70982;BME280;58640;51.320;9.456;2022-10-26T01:59:39;99465.56;;;8.56;99.07
70982;BME280;58640;51.320;9.456;2022-10-26T02:05:31;99463.88;;;8.47;99.53
70982;BME280;58640;51.320;9.456;2022-10-26T02:19:01;99442.78;;;8.52;97.54
70982;BME280;58640;51.320;9.456;2022-10-26T02:21:34;99442.97;;;8.50;97.62
70982;BME280;58640;51.320;9.456;2022-10-26T02:24:00;99453.94;;;8.39;97.49
70982;BME280;58640;51.320;9.456;2022-10-26T02:26:28;99447.38;;;8.26;98.47
70982;BME280;58640;51.320;9.456;2022-10-26T02:28:59;99450.81;;;8.18;98.97
70982;BME280;58640;51.320;9.456;2022-10-26T02:31:26;99448.38;;;8.25;99.09
70982;BME280;58640;51.320;9.456;2022-10-26T02:33:54;99445.00;;;8.23;98.86
70982;BME280;58640;51.320;9.456;2022-10-26T02:36:25;99446.59;;;8.16;99.03
70982;BME280;58640;51.320;9.456;2022-10-26T02:38:52;99432.88;;;8.19;99.05
70982;BME280;58640;51.320;9.456;2022-10-26T02:41:20;99439.50;;;8.24;98.42
70982;BME280;58640;51.320;9.456;2022-10-26T02:44:01;99440.34;;;8.25;98.61
70982;BME280;58640;51.320;9.456;2022-10-26T02:46:28;99428.22;;;8.21;98.94
70982;BME280;58640;51.320;9.456;2022-10-26T02:48:54;99425.81;;;8.35;98.34
70982;BME280;58640;51.320;9.456;2022-10-26T02:51:28;99424.28;;;8.41;97.70
70982;BME280;58640;51.320;9.456;2022-10-26T02:54:13;99422.31;;;8.43;97.53
70982;BME280;58640;51.320;9.456;2022-10-26T02:59:43;99420.59;;;8.34;97.87
70982;BME280;58640;51.320;9.456;2022-10-26T03:02:13;99422.44;;;8.33;98.34
70982;BME280;58640;51.320;9.456;2022-10-26T03:04:39;99416.59;;;8.38;97.55
70982;BME280;58640;51.320;9.456;2022-10-26T03:07:04;99422.59;;;8.32;98.46
70982;BME280;58640;51.320;9.456;2022-10-26T03:09:29;99424.59;;;8.30;98.27
70982;BME280;58640;51.320;9.456;2022-10-26T03:11:55;99422.09;;;8.36;98.55
70982;BME280;58640;51.320;9.456;2022-10-26T03:14:20;99431.50;;;8.32;98.57
70982;BME280;58640;51.320;9.456;2022-10-26T03:16:45;99436.16;;;8.30;98.83
70982;BME280;58640;51.320;9.456;2022-10-26T03:19:11;99435.84;;;8.33;98.22
70982;BME280;58640;51.320;9.456;2022-10-26T03:21:36;99434.81;;;8.26;98.88
70982;BME280;58640;51.320;9.456;2022-10-26T03:24:02;99439.00;;;8.29;99.16
70982;BME280;58640;51.320;9.456;2022-10-26T03:26:27;99430.28;;;8.27;99.02
70982;BME280;58640;51.320;9.456;2022-10-26T03:28:52;99438.31;;;8.27;99.06
70982;BME280;58640;51.320;9.456;2022-10-26T03:31:18;99434.84;;;8.34;98.65
70982;BME280;58640;51.320;9.456;2022-10-26T03:33:43;99436.84;;;8.32;98.78
70982;BME280;58640;51.320;9.456;2022-10-26T03:36:09;99435.13;;;8.23;99.68
70982;BME280;58640;51.320;9.456;2022-10-26T03:38:34;99440.47;;;8.23;99.73
70982;BME280;58640;51.320;9.456;2022-10-26T03:40:59;99422.41;;;8.25;99.47
70982;BME280;58640;51.320;9.456;2022-10-26T03:43:25;99430.97;;;8.29;99.07
70982;BME280;58640;51.320;9.456;2022-10-26T03:45:51;99424.44;;;8.31;99.12
70982;BME280;58640;51.320;9.456;2022-10-26T03:48:16;99423.25;;;8.26;99.60
70982;BME280;58640;51.320;9.456;2022-10-26T03:50:41;99424.44;;;8.31;99.29
70982;BME280;58640;51.320;9.456;2022-10-26T03:53:07;99419.56;;;8.27;99.95
70982;BME280;58640;51.320;9.456;2022-10-26T03:55:32;99425.28;;;8.32;99.39
70982;BME280;58640;51.320;9.456;2022-10-26T03:57:57;99418.28;;;8.39;99.38
70982;BME280;58640;51.320;9.456;2022-10-26T04:00:23;99429.66;;;8.41;98.86
70982;BME280;58640;51.320;9.456;2022-10-26T04:02:56;99421.78;;;8.39;99.10
70982;BME280;58640;51.320;9.456;2022-10-26T04:05:23;99421.31;;;8.44;98.98
70982;BME280;58640;51.320;9.456;2022-10-26T04:07:57;99421.16;;;8.45;99.07
70982;BME280;58640;51.320;9.456;2022-10-26T04:10:24;99423.66;;;8.47;98.24
70982;BME280;58640;51.320;9.456;2022-10-26T04:12:50;99424.97;;;8.43;98.95
70982;BME280;58640;51.320;9.456;2022-10-26T04:15:16;99412.78;;;8.48;98.57
70982;BME280;58640;51.320;9.456;2022-10-26T04:17:41;99416.97;;;8.51;98.56
70982;BME280;58640;51.320;9.456;2022-10-26T04:20:07;99421.50;;;8.50;98.58
70982;BME280;58640;51.320;9.456;2022-10-26T04:22:33;99419.97;;;8.48;98.94
70982;BME280;58640;51.320;9.456;2022-10-26T04:24:59;99409.75;;;8.43;98.54
70982;BME280;58640;51.320;9.456;2022-10-26T04:27:24;99416.25;;;8.41;99.77
70982;BME280;58640;51.320;9.456;2022-10-26T04:29:49;99423.66;;;8.39;99.97
70982;BME280;58640;51.320;9.456;2022-10-26T04:32:15;99424.97;;;8.43;100.00
70982;BME280;58640;51.320;9.456;2022-10-26T04:34:40;99416.59;;;8.38;99.94
70982;BME280;58640;51.320;9.456;2022-10-26T04:37:06;99423.16;;;8.43;99.99
70982;BME280;58640;51.320;9.456;2022-10-26T04:39:31;99413.28;;;8.44;100.00
70982;BME280;58640;51.320;9.456;2022-10-26T04:41:56;99429.53;;;8.42;100.00
70982;BME280;58640;51.320;9.456;2022-10-26T04:44:22;99421.97;;;8.46;100.00
70982;BME280;58640;51.320;9.456;2022-10-26T04:46:47;99430.88;;;8.46;100.00
70982;BME280;58640;51.320;9.456;2022-10-26T04:49:12;99425.34;;;8.48;100.00
70982;BME280;58640;51.320;9.456;2022-10-26T04:51:38;99424.81;;;8.44;100.00
70982;BME280;58640;51.320;9.456;2022-10-26T04:54:04;99425.38;;;8.56;100.00
70982;BME280;58640;51.320;9.456;2022-10-26T04:56:29;99418.53;;;8.61;99.63
70982;BME280;58640;51.320;9.456;2022-10-26T04:58:54;99421.84;;;8.63;99.62
70982;BME280;58640;51.320;9.456;2022-10-26T05:01:20;99419.53;;;8.68;99.58
70982;BME280;58640;51.320;9.456;2022-10-26T05:03:52;99415.00;;;8.69;99.47
70982;BME280;58640;51.320;9.456;2022-10-26T05:06:20;99423.75;;;8.79;98.72
70982;BME280;58640;51.320;9.456;2022-10-26T05:08:46;99427.94;;;8.73;99.10
70982;BME280;58640;51.320;9.456;2022-10-26T05:11:12;99425.06;;;8.75;99.20
70982;BME280;58640;51.320;9.456;2022-10-26T05:13:37;99424.06;;;8.76;99.43
70982;BME280;58640;51.320;9.456;2022-10-26T05:16:03;99421.38;;;8.76;99.55
70982;BME280;58640;51.320;9.456;2022-10-26T05:18:28;99428.13;;;8.88;98.91
70982;BME280;58640;51.320;9.456;2022-10-26T05:20:54;99421.56;;;8.90;98.80
70982;BME280;58640;51.320;9.456;2022-10-26T05:23:19;99421.09;;;8.87;99.13
70982;BME280;58640;51.320;9.456;2022-10-26T05:25:45;99431.13;;;8.85;99.81
70982;BME280;58640;51.320;9.456;2022-10-26T05:28:12;99429.13;;;8.87;99.88
70982;BME280;58640;51.320;9.456;2022-10-26T05:30:38;99427.59;;;8.84;100.00
70982;BME280;58640;51.320;9.456;2022-10-26T05:33:04;99424.78;;;9.02;99.67
70982;BME280;58640;51.320;9.456;2022-10-26T05:35:31;99417.41;;;8.96;99.52
70982;BME280;58640;51.320;9.456;2022-10-26T05:37:57;99420.25;;;8.95;99.72
70982;BME280;58640;51.320;9.456;2022-10-26T05:40:22;99419.91;;;8.98;99.84
70982;BME280;58640;51.320;9.456;2022-10-26T05:42:48;99419.75;;;8.99;99.51
70982;BME280;58640;51.320;9.456;2022-10-26T05:45:15;99424.09;;;8.92;100.00
70982;BME280;58640;51.320;9.456;2022-10-26T05:47:43;99428.97;;;8.97;99.84
70982;BME280;58640;51.320;9.456;2022-10-26T05:50:10;99434.50;;;8.95;99.72
70982;BME280;58640;51.320;9.456;2022-10-26T05:52:43;99433.31;;;8.89;99.97
70982;BME280;58640;51.320;9.456;2022-10-26T05:55:12;99440.84;;;8.86;100.00
70982;BME280;58640;51.320;9.456;2022-10-26T05:57:38;99446.38;;;8.84;100.00
70982;BME280;58640;51.320;9.456;2022-10-26T06:00:09;99444.38;;;8.86;100.00
70982;BME280;58640;51.320;9.456;2022-10-26T06:05:27;99440.53;;;8.97;100.00
70982;BME280;58640;51.320;9.456;2022-10-26T06:07:53;99442.06;;;9.00;100.00
70982;BME280;58640;51.320;9.456;2022-10-26T06:10:19;99441.03;;;9.01;100.00
70982;BME280;58640;51.320;9.456;2022-10-26T06:12:45;99444.41;;;9.03;100.00
70982;BME280;58640;51.320;9.456;2022-10-26T06:15:20;99446.25;;;9.02;100.00
70982;BME280;58640;51.320;9.456;2022-10-26T06:18:02;99445.91;;;9.05;100.00
70982;BME280;58640;51.320;9.456;2022-10-26T06:20:38;99449.09;;;9.09;100.00
70982;BME280;58640;51.320;9.456;2022-10-26T06:26:18;99456.66;;;9.13;100.00
70982;BME280;58640;51.320;9.456;2022-10-26T06:29:10;99457.50;;;9.30;100.00
70982;BME280;58640;51.320;9.456;2022-10-26T06:31:38;99461.53;;;9.26;100.00
70982;BME280;58640;51.320;9.456;2022-10-26T06:34:04;99463.38;;;9.25;100.00
70982;BME280;58640;51.320;9.456;2022-10-26T06:36:30;99468.59;;;9.35;100.00
70982;BME280;58640;51.320;9.456;2022-10-26T06:39:02;99467.56;;;9.44;100.00
70982;BME280;58640;51.320;9.456;2022-10-26T06:41:30;99464.91;;;9.44;100.00
70982;BME280;58640;51.320;9.456;2022-10-26T06:43:56;99472.09;;;9.43;100.00
70982;BME280;58640;51.320;9.456;2022-10-26T06:49:28;99466.91;;;9.66;100.00
70982;BME280;58640;51.320;9.456;2022-10-26T06:54:52;99457.50;;;9.86;100.00
70982;BME280;58640;51.320;9.456;2022-10-26T06:57:23;99467.72;;;9.90;100.00
70982;BME280;58640;51.320;9.456;2022-10-26T07:00:18;99464.84;;;9.92;100.00
70982;BME280;58640;51.320;9.456;2022-10-26T07:02:45;99472.06;;;9.99;100.00
70982;BME280;58640;51.320;9.456;2022-10-26T07:05:10;99465.66;;;10.00;100.00
70982;BME280;58640;51.320;9.456;2022-10-26T07:07:41;99467.53;;;10.00;100.00
70982;BME280;58640;51.320;9.456;2022-10-26T07:10:07;99462.47;;;10.05;100.00
70982;BME280;58640;51.320;9.456;2022-10-26T07:12:33;99469.00;;;10.18;100.00
70982;BME280;58640;51.320;9.456;2022-10-26T07:14:59;99469.53;;;10.14;100.00
70982;BME280;58640;51.320;9.456;2022-10-26T07:17:24;99468.34;;;10.08;100.00
70982;BME280;58640;51.320;9.456;2022-10-26T07:19:51;99472.69;;;10.25;99.91
70982;BME280;58640;51.320;9.456;2022-10-26T07:22:16;99478.22;;;10.32;99.94
70982;BME280;58640;51.320;9.456;2022-10-26T07:24:42;99474.16;;;10.36;99.63
70982;BME280;58640;51.320;9.456;2022-10-26T07:27:07;99485.09;;;10.34;99.76
70982;BME280;58640;51.320;9.456;2022-10-26T07:29:33;99486.28;;;10.32;99.61
70982;BME280;58640;51.320;9.456;2022-10-26T07:31:59;99492.31;;;10.34;99.93
70982;BME280;58640;51.320;9.456;2022-10-26T07:34:24;99488.13;;;10.31;100.00
70982;BME280;58640;51.320;9.456;2022-10-26T07:36:50;99480.72;;;10.42;100.00
70982;BME280;58640;51.320;9.456;2022-10-26T07:39:15;99483.53;;;10.48;99.81
70982;BME280;58640;51.320;9.456;2022-10-26T07:41:41;99488.22;;;10.54;98.93
70982;BME280;58640;51.320;9.456;2022-10-26T07:44:06;99493.09;;;10.51;99.14
70982;BME280;58640;51.320;9.456;2022-10-26T07:46:32;99494.09;;;10.58;99.17
70982;BME280;58640;51.320;9.456;2022-10-26T07:48:57;99496.75;;;10.66;99.30
70982;BME280;58640;51.320;9.456;2022-10-26T07:51:22;99494.72;;;10.68;98.52
70982;BME280;58640;51.320;9.456;2022-10-26T07:53:48;99503.59;;;10.76;98.61
70982;BME280;58640;51.320;9.456;2022-10-26T07:56:13;99492.44;;;10.87;97.40
70982;BME280;58640;51.320;9.456;2022-10-26T07:58:38;99497.31;;;10.84;97.02
70982;BME280;58640;51.320;9.456;2022-10-26T08:01:08;99493.47;;;10.86;96.94
70982;BME280;58640;51.320;9.456;2022-10-26T08:03:35;99499.22;;;10.75;98.35
70982;BME280;58640;51.320;9.456;2022-10-26T08:06:00;99495.13;;;10.87;98.21
70982;BME280;58640;51.320;9.456;2022-10-26T08:08:26;99491.91;;;10.92;98.08
70982;BME280;58640;51.320;9.456;2022-10-26T08:10:52;99495.41;;;11.00;97.99
70982;BME280;58640;51.320;9.456;2022-10-26T08:13:17;99495.16;;;11.10;97.75
70982;BME280;58640;51.320;9.456;2022-10-26T08:15:42;99494.09;;;11.19;97.17
70982;BME280;58640;51.320;9.456;2022-10-26T08:18:08;99505.72;;;11.19;97.26
70982;BME280;58640;51.320;9.456;2022-10-26T08:20:33;99499.97;;;11.22;97.54
70982;BME280;58640;51.320;9.456;2022-10-26T08:22:59;99512.56;;;11.22;96.56
70982;BME280;58640;51.320;9.456;2022-10-26T08:25:25;99504.81;;;11.27;97.11
70982;BME280;58640;51.320;9.456;2022-10-26T08:27:51;99505.00;;;11.25;97.10
70982;BME280;58640;51.320;9.456;2022-10-26T08:30:17;99502.13;;;11.27;97.40
70982;BME280;58640;51.320;9.456;2022-10-26T08:32:42;99513.38;;;11.30;97.21
70982;BME280;58640;51.320;9.456;2022-10-26T08:35:08;99515.94;;;11.24;97.20
70982;BME280;58640;51.320;9.456;2022-10-26T08:37:34;99515.03;;;11.31;96.65
70982;BME280;58640;51.320;9.456;2022-10-26T08:40:00;99506.84;;;11.25;96.92
70982;BME280;58640;51.320;9.456;2022-10-26T08:42:34;99515.34;;;11.36;96.58
70982;BME280;58640;51.320;9.456;2022-10-26T08:45:09;99506.44;;;11.36;96.81
70982;BME280;58640;51.320;9.456;2022-10-26T08:47:45;99510.13;;;11.35;97.32
70982;BME280;58640;51.320;9.456;2022-10-26T08:50:23;99515.53;;;11.35;97.08
70982;BME280;58640;51.320;9.456;2022-10-26T08:52:53;99512.78;;;11.43;96.63
70982;BME280;58640;51.320;9.456;2022-10-26T08:55:25;99507.75;;;11.40;96.83
70982;BME280;58640;51.320;9.456;2022-10-26T08:57:53;99504.81;;;11.49;96.65
70982;BME280;58640;51.320;9.456;2022-10-26T09:00:21;99488.34;;;11.44;97.23
70982;BME280;58640;51.320;9.456;2022-10-26T09:02:51;99486.50;;;11.45;97.74
70982;BME280;58640;51.320;9.456;2022-10-26T09:05:21;99489.25;;;11.37;97.88
70982;BME280;58640;51.320;9.456;2022-10-26T09:10:38;99489.31;;;11.51;97.51
70982;BME280;58640;51.320;9.456;2022-10-26T09:16:36;99497.66;;;11.87;95.72
70982;BME280;58640;51.320;9.456;2022-10-26T09:19:33;99506.47;;;11.96;95.02
70982;BME280;58640;51.320;9.456;2022-10-26T09:22:16;99505.81;;;11.94;95.86
70982;BME280;58640;51.320;9.456;2022-10-26T09:24:49;99504.44;;;11.98;95.51
70982;BME280;58640;51.320;9.456;2022-10-26T09:27:29;99508.84;;;12.13;94.41
70982;BME280;58640;51.320;9.456;2022-10-26T09:30:03;99508.47;;;12.16;94.98
70982;BME280;58640;51.320;9.456;2022-10-26T09:32:40;99512.59;;;12.27;94.71
70982;BME280;58640;51.320;9.456;2022-10-26T09:37:53;99513.59;;;12.40;94.85
70982;BME280;58640;51.320;9.456;2022-10-26T09:40:29;99521.13;;;12.45;94.32
70982;BME280;58640;51.320;9.456;2022-10-26T09:43:05;99514.34;;;12.49;94.55
70982;BME280;58640;51.320;9.456;2022-10-26T09:45:33;99520.66;;;12.56;93.25
70982;BME280;58640;51.320;9.456;2022-10-26T09:48:06;99521.22;;;12.66;92.94
70982;BME280;58640;51.320;9.456;2022-10-26T09:50:37;99531.75;;;12.75;91.79
70982;BME280;58640;51.320;9.456;2022-10-26T09:53:03;99537.03;;;12.83;90.49
70982;BME280;58640;51.320;9.456;2022-10-26T09:55:33;99533.69;;;12.81;90.81
70982;BME280;58640;51.320;9.456;2022-10-26T09:58:05;99532.50;;;12.84;89.97
70982;BME280;58640;51.320;9.456;2022-10-26T10:00:36;99539.28;;;12.80;89.97
70982;BME280;58640;51.320;9.456;2022-10-26T10:03:02;99536.38;;;12.81;90.39
70982;BME280;58640;51.320;9.456;2022-10-26T10:05:31;99539.81;;;12.90;88.84
70982;BME280;58640;51.320;9.456;2022-10-26T10:08:24;99542.63;;;12.67;89.96
70982;BME280;58640;51.320;9.456;2022-10-26T10:11:07;99538.75;;;12.84;89.98
70982;BME280;58640;51.320;9.456;2022-10-26T10:13:36;99545.13;;;12.98;89.12
70982;BME280;58640;51.320;9.456;2022-10-26T10:16:25;99543.81;;;13.23;88.36
70982;BME280;58640;51.320;9.456;2022-10-26T10:18:58;99539.41;;;13.37;87.33
70982;BME280;58640;51.320;9.456;2022-10-26T10:21:36;99539.25;;;13.23;86.38
70982;BME280;58640;51.320;9.456;2022-10-26T10:32:15;99538.97;;;13.18;86.79
70982;BME280;58640;51.320;9.456;2022-10-26T10:34:40;99535.31;;;13.26;85.34
70982;BME280;58640;51.320;9.456;2022-10-26T10:39:49;99538.63;;;13.43;86.36
70982;BME280;58640;51.320;9.456;2022-10-26T10:42:21;99537.28;;;13.32;86.12
70982;BME280;58640;51.320;9.456;2022-10-26T10:44:50;99545.56;;;13.31;85.96
70982;BME280;58640;51.320;9.456;2022-10-26T10:47:28;99549.94;;;13.32;86.84
70982;BME280;58640;51.320;9.456;2022-10-26T10:50:10;99553.47;;;13.32;86.82
70982;BME280;58640;51.320;9.456;2022-10-26T10:52:39;99558.22;;;13.30;86.85
70982;BME280;58640;51.320;9.456;2022-10-26T10:58:14;99550.97;;;13.52;86.08
70982;BME280;58640;51.320;9.456;2022-10-26T11:00:47;99555.19;;;13.75;84.15
70982;BME280;58640;51.320;9.456;2022-10-26T11:06:21;99553.91;;;13.71;84.36
70982;BME280;58640;51.320;9.456;2022-10-26T11:08:59;99555.13;;;13.69;85.36
70982;BME280;58640;51.320;9.456;2022-10-26T11:11:41;99561.16;;;13.92;83.54
70982;BME280;58640;51.320;9.456;2022-10-26T11:14:19;99549.06;;;14.09;83.01
70982;BME280;58640;51.320;9.456;2022-10-26T11:17:00;99549.88;;;14.30;82.60
70982;BME280;58640;51.320;9.456;2022-10-26T11:19:33;99538.06;;;14.38;81.12
70982;BME280;58640;51.320;9.456;2022-10-26T11:22:04;99550.28;;;14.61;81.19
70982;BME280;58640;51.320;9.456;2022-10-26T11:24:35;99542.69;;;14.78;80.08
70982;BME280;58640;51.320;9.456;2022-10-26T11:27:12;99544.84;;;14.89;80.13
70982;BME280;58640;51.320;9.456;2022-10-26T11:30:01;99543.00;;;14.96;79.47
70982;BME280;58640;51.320;9.456;2022-10-26T11:32:38;99546.41;;;15.11;78.97
70982;BME280;58640;51.320;9.456;2022-10-26T11:35:14;99546.19;;;15.13;79.13
70982;BME280;58640;51.320;9.456;2022-10-26T11:38:02;99548.50;;;15.09;79.44
70982;BME280;58640;51.320;9.456;2022-10-26T11:40:40;99544.34;;;14.79;79.72
70982;BME280;58640;51.320;9.456;2022-10-26T11:46:16;99546.28;;;14.85;79.66
70982;BME280;58640;51.320;9.456;2022-10-26T11:51:38;99551.34;;;14.95;79.71
70982;BME280;58640;51.320;9.456;2022-10-26T11:54:27;99541.47;;;14.87;79.51
70982;BME280;58640;51.320;9.456;2022-10-26T11:56:55;99532.13;;;14.90;79.66
70982;BME280;58640;51.320;9.456;2022-10-26T11:59:25;99549.44;;;14.95;79.97
70982;BME280;58640;51.320;9.456;2022-10-26T12:01:59;99543.44;;;15.00;80.33
70982;BME280;58640;51.320;9.456;2022-10-26T12:04:29;99548.91;;;15.13;79.84
70982;BME280;58640;51.320;9.456;2022-10-26T12:06:56;99553.34;;;15.20;79.93
70982;BME280;58640;51.320;9.456;2022-10-26T12:09:26;99548.16;;;15.25;79.18
70982;BME280;58640;51.320;9.456;2022-10-26T12:14:48;99552.03;;;15.16;80.05
70982;BME280;58640;51.320;9.456;2022-10-26T12:17:27;99551.00;;;15.11;81.08
70982;BME280;58640;51.320;9.456;2022-10-26T12:19:54;99553.75;;;15.17;81.30
70982;BME280;58640;51.320;9.456;2022-10-26T12:22:28;99555.84;;;15.22;81.52
70982;BME280;58640;51.320;9.456;2022-10-26T12:35:35;99558.44;;;15.43;82.42
70982;BME280;58640;51.320;9.456;2022-10-26T12:40:45;99561.97;;;15.43;82.87
70982;BME280;58640;51.320;9.456;2022-10-26T12:45:42;99570.81;;;15.58;82.47
70982;BME280;58640;51.320;9.456;2022-10-26T12:48:38;99575.16;;;15.59;82.30
70982;BME280;58640;51.320;9.456;2022-10-26T12:59:43;99579.84;;;15.91;81.87
70982;BME280;58640;51.320;9.456;2022-10-26T13:05:18;99587.97;;;15.91;82.27
70982;BME280;58640;51.320;9.456;2022-10-26T13:07:49;99594.84;;;15.94;82.59
70982;BME280;58640;51.320;9.456;2022-10-26T13:10:20;99594.69;;;15.95;82.57
70982;BME280;58640;51.320;9.456;2022-10-26T13:12:52;99596.97;;;15.98;82.66
70982;BME280;58640;51.320;9.456;2022-10-26T13:15:29;99591.34;;;16.06;82.13
70982;BME280;58640;51.320;9.456;2022-10-26T13:20:30;99599.06;;;16.09;80.44
70982;BME280;58640;51.320;9.456;2022-10-26T13:22:56;99585.28;;;16.04;80.41
70982;BME280;58640;51.320;9.456;2022-10-26T13:25:27;99591.97;;;15.95;80.59
70982;BME280;58640;51.320;9.456;2022-10-26T13:28:03;99589.66;;;15.99;80.38
70982;BME280;58640;51.320;9.456;2022-10-26T13:32:58;99599.47;;;15.93;80.74
70982;BME280;58640;51.320;9.456;2022-10-26T13:35:25;99598.63;;;15.99;80.39
70982;BME280;58640;51.320;9.456;2022-10-26T13:37:53;99598.00;;;16.04;79.93
70982;BME280;58640;51.320;9.456;2022-10-26T13:40:21;99612.19;;;15.99;80.42
70982;BME280;58640;51.320;9.456;2022-10-26T13:42:50;99605.34;;;16.03;79.98
70982;BME280;58640;51.320;9.456;2022-10-26T13:45:20;99601.13;;;16.01;80.41
70982;BME280;58640;51.320;9.456;2022-10-26T13:47:53;99600.72;;;15.97;79.92
70982;BME280;58640;51.320;9.456;2022-10-26T13:50:24;99603.84;;;16.01;80.32
70982;BME280;58640;51.320;9.456;2022-10-26T13:52:53;99612.41;;;16.04;79.87
70982;BME280;58640;51.320;9.456;2022-10-26T14:00:21;99613.66;;;15.95;80.74
70982;BME280;58640;51.320;9.456;2022-10-26T14:02:47;99621.81;;;15.95;80.64
70982;BME280;58640;51.320;9.456;2022-10-26T14:05:15;99618.47;;;16.06;80.49
70982;BME280;58640;51.320;9.456;2022-10-26T14:07:44;99623.69;;;16.08;80.21
70982;BME280;58640;51.320;9.456;2022-10-26T14:12:56;99624.13;;;16.05;80.48
70982;BME280;58640;51.320;9.456;2022-10-26T14:15:24;99629.53;;;16.05;80.55
70982;BME280;58640;51.320;9.456;2022-10-26T14:17:52;99631.81;;;16.01;81.29
70982;BME280;58640;51.320;9.456;2022-10-26T14:20:22;99632.84;;;16.00;81.49
70982;BME280;58640;51.320;9.456;2022-10-26T14:22:48;99641.22;;;16.05;81.38
70982;BME280;58640;51.320;9.456;2022-10-26T14:25:31;99643.50;;;16.08;81.32
70982;BME280;58640;51.320;9.456;2022-10-26T14:27:56;99644.34;;;16.09;81.45
70982;BME280;58640;51.320;9.456;2022-10-26T14:30:28;99648.53;;;16.11;81.77
70982;BME280;58640;51.320;9.456;2022-10-26T14:32:55;99646.88;;;16.10;81.81
70982;BME280;58640;51.320;9.456;2022-10-26T14:35:27;99651.69;;;16.22;81.34
70982;BME280;58640;51.320;9.456;2022-10-26T14:38:01;99645.03;;;16.24;81.26
70982;BME280;58640;51.320;9.456;2022-10-26T14:40:29;99648.53;;;16.18;81.30
70982;BME280;58640;51.320;9.456;2022-10-26T14:43:00;99647.50;;;16.19;81.63
70982;BME280;58640;51.320;9.456;2022-10-26T14:47:52;99652.47;;;16.02;82.76
70982;BME280;58640;51.320;9.456;2022-10-26T14:50:20;99652.25;;;15.97;83.57
70982;BME280;58640;51.320;9.456;2022-10-26T14:53:13;99658.75;;;16.03;83.20
70982;BME280;58640;51.320;9.456;2022-10-26T14:55:46;99664.44;;;16.15;82.59
70982;BME280;58640;51.320;9.456;2022-10-26T14:58:17;99667.75;;;16.03;82.92
70982;BME280;58640;51.320;9.456;2022-10-26T15:00:44;99674.56;;;15.93;83.26
70982;BME280;58640;51.320;9.456;2022-10-26T15:08:56;99685.78;;;15.77;84.10
70982;BME280;58640;51.320;9.456;2022-10-26T15:11:22;99676.38;;;15.66;84.77
70982;BME280;58640;51.320;9.456;2022-10-26T15:13:47;99681.31;;;15.56;84.85
70982;BME280;58640;51.320;9.456;2022-10-26T15:16:18;99681.94;;;15.52;85.57
70982;BME280;58640;51.320;9.456;2022-10-26T15:18:46;99687.78;;;15.55;85.54